Latest Weather Observations for Essendon Airport

IDV60801

Issued at 3:32 pm EST Tuesday 1 September 2015 (issued every 30 minutes, with the page automatically refreshed every 10 minutes)

About weather observations | Map of weather stations | Latest weather observations for VIC | Other Formats
Station Details ID: 086038 Name: ESSENDON AIRPORT Lat: -37.73 Lon: 144.91 Height: 78.4 m
Data from the previous 72 hours. | See also: Recent months at Essendon Airport
Date/Time
EST
Temp
°C
App
Temp
°C
Dew
Point
Rel
Hum
%
Delta-T
°C
Wind Press
QNH
hPa
Press
MSL
hPa
Rain
since 9 am
mm
Dir
 
Spd
km/h
Gust
km/h
Spd
kts
Gust
kts
01/03:30pm 16.1 12.5 3.2 42 5.9 NNW 11 19 6 10 1013.2 1013.3 0.0
01/03:00pm 16.1 13.6 4.5 46 5.5 NW 7 11 4 6 1013.5 1013.6 0.0
01/02:30pm 15.8 13.2 6.0 52 4.7 NE 9 15 5 8 1013.6 1013.7 0.0
01/02:00pm 15.3 13.9 5.5 52 4.7 ENE 2 11 1 6 1013.8 1013.9 0.0
01/01:30pm 14.5 11.4 3.6 48 5.0 NNE 9 15 5 8 1014.4 1014.5 0.0
01/01:00pm 14.2 11.5 3.9 50 4.7 N 7 13 4 7 1015.0 1015.1 0.0
01/12:30pm 13.1 10.1 4.3 55 4.0 NE 9 17 5 9 1015.8 1015.8 0.0
01/12:00pm 12.9 10.6 4.8 58 3.7 NW 6 15 3 8 1016.5 1016.5 0.0
01/11:30am 12.3 9.7 4.3 58 3.6 N 7 17 4 9 1016.9 1016.9 0.0
01/11:00am 11.3 8.7 4.1 61 3.2 NNE 7 13 4 7 1017.1 1017.1 0.0
01/10:30am 10.5 8.9 4.6 67 2.7 NW 2 9 1 5 1017.1 1017.1 0.0
01/10:00am 10.7 9.0 4.2 64 2.9 ENE 2 7 1 4 1017.3 1017.3 0.0
01/09:30am 9.8 8.6 4.4 69 2.4 CALM 0 0 0 0 1017.4 1017.5 0.0
01/09:00am 9.2 7.9 4.0 70 2.3 CALM 0 0 0 0 1017.3 1017.4 0.0
01/08:30am 7.7 6.3 3.7 76 1.7 CALM 0 4 0 2 1017.3 1017.4 0.0
01/08:00am 6.4 5.1 4.1 85 1.0 CALM 0 0 0 0 1017.5 1017.6 0.0
01/07:30am 4.9 2.8 4.0 94 0.4 NW 4 6 2 3 1017.0 1017.1 0.0
01/07:00am 4.3 2.9 3.3 93 0.4 CALM 0 0 0 0 1016.8 1016.9 0.0
01/06:30am 4.3 2.4 3.0 91 0.5 N 2 4 1 2 1016.6 1016.7 0.0
01/06:00am 5.1 3.3 3.4 89 0.7 WNW 2 4 1 2 1016.5 1016.6 0.0
01/05:30am 5.0 2.7 2.9 86 0.9 WNW 4 6 2 3 1016.5 1016.6 0.0
01/05:00am 5.8 4.3 3.1 83 1.1 CALM 0 6 0 3 1016.7 1016.8 0.0
01/04:30am 6.2 4.4 3.7 84 1.1 WSW 2 6 1 3 1016.6 1016.7 0.0
01/04:00am 7.1 5.4 4.2 82 1.3 W 2 7 1 4 1016.8 1016.9 0.0
01/03:30am 7.8 5.3 4.0 77 1.6 W 6 6 3 3 1017.1 1017.2 0.0
01/03:00am 8.5 6.0 3.8 72 2.0 NE 6 7 3 4 1017.3 1017.4 0.0
01/02:30am 8.9 6.2 2.9 66 2.6 SSE 6 9 3 5 1017.5 1017.6 0.0
01/02:00am 8.9 6.1 3.1 67 2.5 SSW 7 11 4 6 1018.0 1018.1 0.0
01/01:30am 9.0 7.6 3.8 70 2.3 CALM 0 0 0 0 1018.3 1018.4 0.0
01/01:00am 9.2 5.7 3.4 67 2.5 SW 11 15 6 8 1018.4 1018.5 0.0
01/12:30am 9.4 6.9 4.0 69 2.4 SSE 6 9 3 5 1018.5 1018.6 0.0
01/12:00am 9.3 6.9 4.1 70 2.3 ESE 6 7 3 4 1018.4 1018.5 0.0
 
Date/Time
EST
Temp
°C
App
Temp
°C
Dew
Point
Rel
Hum
%
Delta-T
°C
Wind Press
QNH
hPa
Press
MSL
hPa
Rain
since 9 am
mm
Dir
 
Spd
km/h
Gust
km/h
Spd
kts
Gust
kts
31/11:30pm 9.8 7.2 3.3 64 2.8 ESE 6 9 3 5 1018.6 1018.7 0.0
31/11:00pm 9.7 7.2 3.7 66 2.6 SSE 6 17 3 9 1018.7 1018.8 0.0
31/10:30pm 9.7 6.7 4.3 69 2.4 SE 9 11 5 6 1018.7 1018.8 0.0
31/10:00pm 9.8 7.3 4.6 70 2.3 SSE 7 11 4 6 1018.9 1019.0 0.0
31/09:30pm 9.9 7.0 4.9 71 2.3 S 9 11 5 6 1019.0 1019.1 0.0
31/09:00pm 10.0 7.2 5.2 72 2.2 S 9 15 5 8 1019.1 1019.2 0.0
31/08:30pm 9.9 6.5 4.1 67 2.6 SSE 11 17 6 9 1019.0 1019.1 0.0
31/08:00pm 9.9 6.2 4.7 70 2.3 S 13 17 7 9 1019.1 1019.2 0.0
31/07:30pm 10.0 6.3 4.6 69 2.4 SSE 13 20 7 11 1018.9 1019.0 0.0
31/07:00pm 10.0 6.4 4.8 70 2.3 S 13 19 7 10 1018.7 1018.8 0.0
31/06:30pm 10.1 6.5 5.1 71 2.3 S 13 19 7 10 1018.7 1018.8 0.0
31/06:00pm 10.1 5.7 4.7 69 2.4 S 17 20 9 11 1018.8 1018.9 0.0
31/05:30pm 10.2 5.8 5.0 70 2.4 S 17 22 9 12 1018.8 1018.9 0.0
31/05:00pm 10.5 6.1 4.9 68 2.5 S 17 20 9 11 1018.7 1018.8 0.0
31/04:30pm 10.7 5.8 5.0 68 2.6 SSW 20 24 11 13 1018.8 1018.9 0.0
31/04:00pm 11.0 6.1 5.1 67 2.7 S 20 26 11 14 1018.8 1018.9 0.0
31/03:30pm 11.3 5.9 4.7 64 3.0 SSW 22 30 12 16 1018.6 1018.7 0.0
31/03:00pm 11.4 6.4 4.6 63 3.1 S 20 28 11 15 1018.6 1018.7 0.0
31/02:30pm 12.4 7.7 6.0 65 3.0 SSW 20 28 11 15 1018.9 1019.0 0.0
31/02:00pm 12.0 7.0 4.5 60 3.4 S 20 32 11 17 1018.9 1019.0 0.0
31/01:30pm 12.3 8.7 5.0 61 3.4 S 13 24 7 13 1019.0 1019.1 0.0
31/01:00pm 11.5 7.5 2.8 55 3.8 SE 13 20 7 11 1019.4 1019.5 0.0
31/12:30pm 11.6 9.4 3.4 57 3.6 SW 4 11 2 6 1019.9 1020.0 0.0
31/12:00pm 10.5 5.9 3.8 63 3.0 S 17 24 9 13 1020.6 1020.7 0.0
31/11:30am 10.9 6.5 4.6 65 2.8 S 17 30 9 16 1020.7 1020.8 0.0
31/11:00am 10.6 6.5 4.5 66 2.7 S 15 26 8 14 1020.8 1020.9 0.0
31/10:30am 10.1 5.4 3.2 62 3.0 SW 17 26 9 14 1020.8 1020.9 0.0
31/10:00am 9.8 5.1 3.1 63 2.9 SSW 17 22 9 12 1021.0 1021.1 0.0
31/09:30am 9.9 6.2 4.3 68 2.5 SSW 13 20 7 11 1021.1 1021.2 0.0
31/09:00am 9.6 6.7 4.8 72 2.1 WSW 9 13 5 7 1021.1 1021.2 0.0
31/08:30am 8.7 6.2 4.7 76 1.8 WSW 7 11 4 6 1021.2 1021.3 0.0
31/08:00am 7.8 4.8 5.8 87 0.9 WNW 11 15 6 8 1021.1 1021.2 0.0
31/07:30am 7.3 4.3 5.8 90 0.7 W 11 17 6 9 1020.9 1021.0 0.0
31/07:00am 6.9 3.4 5.5 91 0.6 WSW 13 17 7 9 1020.8 1020.9 0.0
31/06:30am 7.0 4.0 6.1 94 0.4 W 11 15 6 8 1020.8 1020.9 0.0
31/06:00am 7.0 4.0 6.1 94 0.4 WSW 11 15 6 8 1020.8 1020.9 0.0
31/05:30am 7.1 3.3 5.9 92 0.5 WSW 15 20 8 11 1020.8 1020.9 0.0
31/05:00am 7.2 3.8 5.8 91 0.6 WSW 13 15 7 8 1020.7 1020.8 0.0
31/04:30am 7.2 3.4 5.8 91 0.6 W 15 20 8 11 1020.6 1020.7 0.0
31/04:00am 7.4 3.7 6.2 92 0.5 W 15 19 8 10 1020.7 1020.8 0.0
31/03:30am 7.1 3.8 6.2 94 0.4 WNW 13 15 7 8 1020.6 1020.7 0.0
31/03:00am 7.2 3.9 6.5 95 0.3 W 13 17 7 9 1020.9 1021.0 0.0
31/02:30am 7.3 4.1 6.7 96 0.3 W 13 15 7 8 1021.3 1021.4 0.0
31/02:03am 7.1 4.2 6.5 96 0.3 W 11 15 6 8 1021.7 1021.8 0.0
31/02:00am 7.1 3.8 6.5 96 0.3 WSW 13 15 7 8 1021.7 1021.8 0.0
31/01:51am 7.3 4.0 6.6 95 0.3 SW 13 17 7 9 1021.9 1022.0 0.0
31/01:31am 7.3 3.6 6.1 92 0.5 SW 15 20 8 11 1022.0 1022.1 0.0
31/01:30am 7.4 3.7 6.2 92 0.5 SW 15 20 8 11 1022.1 1022.2 0.0
31/01:20am 7.7 3.6 6.2 90 0.7 SW 17 22 9 12 1022.2 1022.3 0.0
31/01:00am 8.2 4.7 5.5 83 1.2 SW 13 17 7 9 1022.2 1022.3 0.0
31/12:30am 8.4 5.0 5.7 83 1.2 W 13 17 7 9 1022.2 1022.3 0.0
31/12:00am 8.5 5.4 5.4 81 1.4 W 11 15 6 8 1022.5 1022.6 0.0
 
Date/Time
EST
Temp
°C
App
Temp
°C
Dew
Point
Rel
Hum
%
Delta-T
°C
Wind Press
QNH
hPa
Press
MSL
hPa
Rain
since 9 am
mm
Dir
 
Spd
km/h
Gust
km/h
Spd
kts
Gust
kts
30/11:30pm 8.8 5.7 5.4 79 1.5 SW 11 13 6 7 1022.8 1022.9 0.0
30/11:00pm 9.0 5.7 4.6 74 1.9 SSW 11 17 6 9 1023.0 1023.1 0.0
30/10:30pm 8.9 6.2 5.5 79 1.5 SSW 9 13 5 7 1023.3 1023.4 0.0
30/10:00pm 9.0 5.6 5.7 80 1.5 SSW 13 17 7 9 1023.5 1023.6 0.0
30/09:30pm 9.0 5.9 5.7 80 1.5 SSW 11 15 6 8 1023.6 1023.7 0.0
30/09:00pm 9.0 5.2 5.7 80 1.5 SSW 15 20 8 11 1023.8 1023.9 0.0
30/08:30pm 9.3 4.8 5.9 79 1.6 SSW 19 24 10 13 1023.6 1023.7 0.0
30/08:00pm 9.5 5.5 4.9 73 2.1 SSW 15 20 8 11 1023.5 1023.6 0.0
30/07:30pm 9.4 6.3 5.4 76 1.8 SSW 11 15 6 8 1023.4 1023.5 0.0
30/07:00pm 9.0 5.5 5.4 78 1.6 SSW 13 19 7 10 1023.4 1023.5 0.0
30/06:30pm 8.8 4.9 5.2 78 1.6 S 15 19 8 10 1023.4 1023.5 0.0
30/06:00pm 9.6 5.0 5.4 75 1.9 S 19 26 10 14 1023.1 1023.2 0.0
30/05:30pm 9.7 5.2 5.9 77 1.8 S 19 24 10 13 1022.9 1023.0 0.0
30/05:00pm 10.2 5.3 5.2 71 2.3 SSW 20 28 11 15 1022.9 1023.0 0.0
30/04:30pm 10.3 5.7 5.5 72 2.2 S 19 26 10 14 1022.9 1023.0 0.0
30/04:00pm 10.6 5.4 5.6 71 2.3 SSW 22 30 12 16 1023.0 1023.1 0.0
30/03:30pm 11.0 5.5 6.0 71 2.3 S 24 33 13 18 1023.1 1023.2 0.0
30/03:00pm 11.7 6.7 6.6 71 2.4 SSW 22 28 12 15 1023.0 1023.1 0.0
30/02:30pm 11.7 7.2 6.8 72 2.3 SSW 20 32 11 17 1023.1 1023.2 0.0
30/02:00pm 11.6 7.1 6.3 70 2.5 SSW 19 24 10 13 1023.2 1023.3 0.0
30/01:30pm 11.6 7.4 5.9 68 2.7 SW 17 26 9 14 1023.4 1023.5 0.0
30/01:00pm 11.1 6.6 6.0 71 2.4 S 19 26 10 14 1023.6 1023.7 0.0
30/12:30pm 11.3 6.9 6.4 72 2.3 SSW 19 24 10 13 1024.0 1024.1 0.0
30/12:00pm 10.9 6.3 6.6 75 2.0 S 20 28 11 15 1024.3 1024.4 0.0
30/11:30am 11.5 7.0 6.8 73 2.2 S 20 30 11 16 1024.7 1024.8 0.0
30/11:00am 10.8 7.4 7.5 80 1.6 SSW 15 22 8 12 1024.9 1025.0 0.0
30/10:30am 9.8 5.5 7.1 83 1.3 SW 19 26 10 14 1025.0 1025.2 0.0
30/10:00am 9.8 6.4 7.7 87 1.0 SW 15 20 8 11 1025.1 1025.3 0.0
30/09:30am 9.4 6.0 7.5 88 0.9 SW 15 20 8 11 1025.3 1025.5 0.0
30/09:00am 8.7 4.5 7.5 92 0.6 WSW 19 24 10 13 1025.3 1025.5 3.6
30/08:30am 8.4 4.2 7.6 95 0.4 WSW 19 28 10 15 1025.4 1025.6 3.6
30/08:00am 8.0 4.7 7.9 99 0.0 WSW 15 20 8 11 1025.3 1025.5 3.6
30/07:30am 7.6 4.2 7.5 99 0.0 WSW 15 20 8 11 1025.0 1025.2 3.6
30/07:00am 7.6 4.2 7.5 99 0.0 WSW 15 19 8 10 1024.4 1024.5 3.6
30/06:30am 7.7 3.9 7.6 99 0.0 WSW 17 22 9 12 1024.2 1024.3 3.6
30/06:00am 7.7 4.3 7.6 99 0.0 WSW 15 20 8 11 1024.1 1024.2 3.6
30/05:30am 7.7 3.9 7.6 99 0.0 WSW 17 22 9 12 1023.9 1024.0 3.6
30/05:00am 7.7 3.9 7.6 99 0.0 WSW 17 20 9 11 1024.0 1024.1 3.6
30/04:30am 7.6 3.8 7.5 99 0.0 WSW 17 22 9 12 1024.0 1024.1 3.6
30/04:00am 7.8 4.4 7.7 99 0.0 WSW 15 20 8 11 1023.9 1024.0 3.6
30/03:30am 7.9 3.8 7.9 100 0.0 SW 19 24 10 13 1024.1 1024.2 3.6
30/03:16am 7.8 3.7 7.8 100 0.0 WSW 19 26 10 14 1024.2 1024.3 3.6
30/03:00am 7.7 3.9 7.7 100 0.0 WSW 17 22 9 12 1024.3 1024.4 3.6
30/02:38am 7.7 3.9 7.7 100 0.0 WSW 17 22 9 12 1024.2 1024.3 3.6
30/02:31am 7.7 4.3 7.7 100 0.0 WSW 15 24 8 13 1024.3 1024.4 3.6
30/02:30am 7.7 3.9 7.7 100 0.0 WSW 17 24 9 13 1024.3 1024.4 3.6
30/02:21am 7.7 3.6 7.7 100 0.0 WSW 19 26 10 14 1024.4 1024.5 3.4
30/02:16am 7.8 3.7 7.8 100 0.0 WSW 19 24 10 13 1024.4 1024.5 3.4
30/02:03am 7.8 3.7 7.8 100 0.0 WSW 19 24 10 13 1024.4 1024.5 3.4
30/02:00am 7.8 3.7 7.8 100 0.0 WSW 19 24 10 13 1024.4 1024.5 3.4
30/01:44am 8.0 4.3 7.9 99 0.0 WSW 17 20 9 11 1024.7 1024.8 3.4
30/01:30am 8.1 4.4 8.0 99 0.0 SW 17 24 9 13 1024.9 1025.0 3.4
30/01:17am 8.2 4.9 8.1 99 0.0 SW 15 22 8 12 1025.0 1025.2 3.2
30/01:00am 8.2 4.2 8.1 99 0.0 SW 19 28 10 15 1025.0 1025.2 3.0
30/12:55am 8.1 3.8 8.0 99 0.0 SW 20 28 11 15 1025.0 1025.2 3.0
30/12:43am 8.2 4.0 8.1 99 0.0 SW 20 30 11 16 1025.1 1025.3 3.0
30/12:42am 8.2 4.0 8.1 99 0.0 SW 20 30 11 16 1025.2 1025.4 3.0
30/12:40am 8.2 4.0 8.1 99 0.0 SW 20 24 11 13 1025.2 1025.4 3.0
30/12:30am 8.3 4.1 8.2 99 0.0 SW 20 30 11 16 1025.2 1025.4 3.0
30/12:26am 8.5 3.9 8.2 98 0.1 SW 22 32 12 17 1025.3 1025.5 3.0
30/12:00am 8.5 4.1 7.6 94 0.4 SW 20 30 11 16 1025.3 1025.5 2.6
 
Date/Time
EST
Temp
°C
App
Temp
°C
Dew
Point
Rel
Hum
%
Delta-T
°C
Wind Press
QNH
hPa
Press
MSL
hPa
Rain
since 9 am
mm
Dir
 
Spd
km/h
Gust
km/h
Spd
kts
Gust
kts
29/11:30pm 8.4 4.7 8.1 98 0.1 SW 17 22 9 12 1025.6 1025.8 2.6
29/11:00pm 8.3 4.3 8.2 99 0.0 SW 19 26 10 14 1025.7 1025.9 2.6
29/10:44pm 8.5 4.9 8.4 99 0.0 SW 17 20 9 11 1025.8 1026.0 2.6
29/10:30pm 8.6 5.0 8.5 99 0.0 SW 17 20 9 11 1025.8 1026.0 2.6
29/10:28pm 8.7 5.2 8.6 99 0.0 SW 17 20 9 11 1025.9 1026.1 2.6
29/10:00pm 8.7 5.5 8.6 99 0.0 SW 15 19 8 10 1025.7 1025.9 2.6
29/09:30pm 8.6 5.0 8.5 99 0.0 SW 17 22 9 12 1025.8 1026.0 2.6
29/09:27pm 8.5 4.9 8.4 99 0.0 SW 17 24 9 13 1025.8 1026.0 2.6
29/09:08pm 8.8 4.9 8.7 99 0.0 SSW 19 26 10 14 1025.7 1025.9 2.6
29/09:04pm 8.7 4.8 8.6 99 0.0 SSW 19 26 10 14 1025.7 1025.9 2.6
29/09:00pm 8.7 4.8 8.6 99 0.0 SSW 19 24 10 13 1025.6 1025.8 2.6
29/08:43pm 8.8 4.4 8.8 100 0.0 SSW 22 30 12 16 1025.6 1025.8 2.6
29/08:30pm 8.9 5.4 8.8 99 0.0 SSW 17 28 9 15 1025.6 1025.8 2.6
29/08:12pm 9.0 5.9 8.9 99 0.0 SSW 15 22 8 12 1025.7 1025.9 1.6
29/08:00pm 8.9 5.0 8.8 99 0.0 SW 19 26 10 14 1025.6 1025.8 1.4
29/07:41pm 9.0 5.2 8.9 99 0.0 SW 19 28 10 15 1025.6 1025.8 1.4
29/07:30pm 9.1 6.0 9.0 99 0.0 SW 15 20 8 11 1025.6 1025.8 1.4
29/07:16pm 9.0 5.5 8.9 99 0.0 SW 17 24 9 13 1025.6 1025.8 1.4
29/07:02pm 9.2 4.7 8.7 97 0.2 SSW 22 30 12 16 1025.7 1025.9 1.4
29/07:00pm 9.2 4.7 8.6 96 0.3 SSW 22 30 12 16 1025.7 1025.9 1.2
29/06:57pm 9.4 5.3 8.5 94 0.4 SSW 20 30 11 16 1025.7 1025.9 0.6
29/06:30pm 9.8 4.7 7.7 87 1.0 SW 24 28 13 15 1025.3 1025.5 0.4
29/06:00pm 10.0 4.9 7.6 85 1.1 SW 24 35 13 19 1025.2 1025.4 0.4
29/05:30pm 9.9 5.7 8.2 89 0.8 SW 20 28 11 15 1025.0 1025.2 0.4
29/05:10pm 9.6 5.5 8.7 94 0.4 SSW 20 28 11 15 1025.0 1025.2 0.4
29/05:00pm 9.4 3.7 8.5 94 0.4 SSW 28 41 15 22 1024.9 1025.0 0.4
29/04:59pm 9.4 3.7 8.5 94 0.4 SSW 28 41 15 22 1024.9 1025.0 0.4
29/04:30pm 10.5 4.6 7.6 82 1.4 SW 28 37 15 20 1024.8 1024.9 0.4
29/04:00pm 10.0 4.3 8.3 89 0.8 SSW 28 39 15 21 1024.7 1024.8 0.4

Other Formats:

Comma delimited format used in spreadsheet applications
http://www.bom.gov.au/fwo/IDV60801/IDV60801.95866.axf

JavaScript Object Notation format (JSON) in row-major order
http://www.bom.gov.au/fwo/IDV60801/IDV60801.95866.json